메인 페이지
METAR-TAF:

METAR-TAF

공항 :

Resistencia, 아르헨티나

위도: 27-27S, 경도: 059-03W, 고도: 53m

현재 날씨관측

예보는 28분 전, 15:00시(UTC)에 발표되었습니다.
7kt
온도 22°C
습도 88%
기압 1013 hPa
시정: 7000m
고도 800ft 상공 흐림

METAR: SARE 201500Z 09007KT 7000 OVC008 22/20 Q1013

시각: 12:28 (15:28 UTC)

예보

예보는 4 시간 28분 전, 11:00시(UTC)에 발표되었습니다.
예보 대상 시간: 20일 12시부터 21일 12시까지 (UTC)
5kt
시정: 5000m
고도 300ft 상공 흐림
박무
확률 40%
20일 13시부터 20일 18시까지 (UTC)
시정 10km 이상
고도 1500ft 상공 구름 많음
전환 중
20일 18시부터 20일 20시까지 (UTC)
시정: 2000m
고도 300ft 상공 흐림
비, 이슬비,

TAF: SARE 201100Z 2012/2112 18005KT 5000 BR OVC003 TX26/2018Z TN18/2110Z PROB40 2013/2018 9999 NSW BKN015 BECMG 2018/2020 2000 RADZ OVC003

4,000개 이상의 공항 관측 자료 및 예보 (METAR 및 TAF 보고).

지도상에서 검색 가능한 기상관측소가 노란 점과 빨간 점으로 표시되어 있습니다.

기상관측소 명을 보려면 표시 위로 마우스를 이동하세요.

날씨 관측과 예보를 보려면 클릭하세요.

지도 변경 : 확대하려면 엑스 표시가 있는 녹색 버튼, 축소하려면 빼기 표시가 있는 녹색 버튼, 다음 페이지의 지도를 보려면 녹색 화살표를 클릭하세요.


METAR-TAF: